sensor_id;sensor_type;location;lat;lon;timestamp;pressure;altitude;pressure_sealevel;temperature;humidity
23473;BME280;11909;52.516;13.564;2023-03-14T00:01:13;98622.13;;;11.74;86.06
23473;BME280;11909;52.516;13.564;2023-03-14T00:03:41;98623.59;;;11.72;86.28
23473;BME280;11909;52.516;13.564;2023-03-14T00:06:10;98627.75;;;11.78;86.12
23473;BME280;11909;52.516;13.564;2023-03-14T00:08:39;98643.75;;;11.76;85.72
23473;BME280;11909;52.516;13.564;2023-03-14T00:11:08;98622.66;;;11.68;86.01
23473;BME280;11909;52.516;13.564;2023-03-14T00:13:36;98620.47;;;11.61;86.50
23473;BME280;11909;52.516;13.564;2023-03-14T00:16:08;98616.00;;;11.56;86.81
23473;BME280;11909;52.516;13.564;2023-03-14T00:18:37;98618.50;;;11.49;87.10
23473;BME280;11909;52.516;13.564;2023-03-14T00:21:06;98607.41;;;11.58;86.64
23473;BME280;11909;52.516;13.564;2023-03-14T00:23:35;98583.34;;;11.42;87.60
23473;BME280;11909;52.516;13.564;2023-03-14T00:26:06;98582.31;;;11.47;87.38
23473;BME280;11909;52.516;13.564;2023-03-14T00:28:34;98573.75;;;11.48;87.42
23473;BME280;11909;52.516;13.564;2023-03-14T00:31:03;98569.38;;;11.35;88.33
23473;BME280;11909;52.516;13.564;2023-03-14T00:33:32;98565.25;;;11.41;88.10
23473;BME280;11909;52.516;13.564;2023-03-14T00:36:02;98562.19;;;11.43;88.20
23473;BME280;11909;52.516;13.564;2023-03-14T00:38:31;98562.03;;;11.39;88.58
23473;BME280;11909;52.516;13.564;2023-03-14T00:41:02;98556.19;;;11.28;89.37
23473;BME280;11909;52.516;13.564;2023-03-14T00:43:30;98556.28;;;11.19;90.19
23473;BME280;11909;52.516;13.564;2023-03-14T00:45:58;98547.47;;;11.26;89.89
23473;BME280;11909;52.516;13.564;2023-03-14T00:48:26;98545.31;;;11.19;90.66
23473;BME280;11909;52.516;13.564;2023-03-14T00:50:56;98554.13;;;11.25;90.41
23473;BME280;11909;52.516;13.564;2023-03-14T00:53:23;98550.66;;;11.16;90.72
23473;BME280;11909;52.516;13.564;2023-03-14T00:55:51;98534.06;;;11.12;91.17
23473;BME280;11909;52.516;13.564;2023-03-14T00:58:19;98538.41;;;11.13;91.39
23473;BME280;11909;52.516;13.564;2023-03-14T01:00:47;98535.66;;;11.13;91.41
23473;BME280;11909;52.516;13.564;2023-03-14T01:03:15;98524.13;;;11.08;91.68
23473;BME280;11909;52.516;13.564;2023-03-14T01:05:42;98516.28;;;10.97;92.46
23473;BME280;11909;52.516;13.564;2023-03-14T01:08:11;98514.06;;;11.12;91.86
23473;BME280;11909;52.516;13.564;2023-03-14T01:10:40;98501.09;;;11.00;92.48
23473;BME280;11909;52.516;13.564;2023-03-14T01:13:09;98492.59;;;10.93;92.83
23473;BME280;11909;52.516;13.564;2023-03-14T01:15:37;98495.16;;;10.98;93.05
23473;BME280;11909;52.516;13.564;2023-03-14T01:18:05;98493.88;;;10.95;92.87
23473;BME280;11909;52.516;13.564;2023-03-14T01:20:32;98513.31;;;11.02;92.68
23473;BME280;11909;52.516;13.564;2023-03-14T01:23:00;98524.06;;;10.95;93.02
23473;BME280;11909;52.516;13.564;2023-03-14T01:25:29;98541.22;;;11.04;92.61
23473;BME280;11909;52.516;13.564;2023-03-14T01:27:57;98570.72;;;10.95;93.25
23473;BME280;11909;52.516;13.564;2023-03-14T01:30:27;98578.63;;;10.97;93.09
23473;BME280;11909;52.516;13.564;2023-03-14T01:32:54;98578.72;;;11.00;93.02
23473;BME280;11909;52.516;13.564;2023-03-14T01:35:22;98569.25;;;10.98;93.14
23473;BME280;11909;52.516;13.564;2023-03-14T01:37:50;98576.00;;;11.00;93.03
23473;BME280;11909;52.516;13.564;2023-03-14T01:40:18;98576.81;;;11.01;93.26
23473;BME280;11909;52.516;13.564;2023-03-14T01:42:54;98581.84;;;10.99;92.78
23473;BME280;11909;52.516;13.564;2023-03-14T01:48:36;98584.13;;;10.97;93.22
23473;BME280;11909;52.516;13.564;2023-03-14T01:51:06;98589.47;;;10.93;93.37
23473;BME280;11909;52.516;13.564;2023-03-14T01:53:37;98603.31;;;10.97;93.58
23473;BME280;11909;52.516;13.564;2023-03-14T01:56:08;98602.72;;;10.91;93.88
23473;BME280;11909;52.516;13.564;2023-03-14T01:58:39;98607.31;;;10.99;93.38
23473;BME280;11909;52.516;13.564;2023-03-14T02:01:09;98596.09;;;10.92;93.75
23473;BME280;11909;52.516;13.564;2023-03-14T02:03:43;98591.53;;;10.96;93.95
23473;BME280;11909;52.516;13.564;2023-03-14T02:06:14;98589.59;;;10.97;93.80
23473;BME280;11909;52.516;13.564;2023-03-14T02:08:45;98569.56;;;10.96;93.65
23473;BME280;11909;52.516;13.564;2023-03-14T02:11:14;98561.41;;;10.87;94.35
23473;BME280;11909;52.516;13.564;2023-03-14T02:13:44;98561.19;;;10.93;94.53
23473;BME280;11909;52.516;13.564;2023-03-14T02:16:12;98555.13;;;10.87;94.22
23473;BME280;11909;52.516;13.564;2023-03-14T02:18:40;98553.53;;;10.86;94.22
23473;BME280;11909;52.516;13.564;2023-03-14T02:21:13;98541.88;;;10.89;93.89
23473;BME280;11909;52.516;13.564;2023-03-14T02:23:48;98539.59;;;10.91;93.85
23473;BME280;11909;52.516;13.564;2023-03-14T02:26:22;98546.09;;;10.86;93.90
23473;BME280;11909;52.516;13.564;2023-03-14T02:28:53;98537.41;;;10.84;93.98
23473;BME280;11909;52.516;13.564;2023-03-14T02:31:22;98545.63;;;10.84;94.49
23473;BME280;11909;52.516;13.564;2023-03-14T02:33:51;98529.91;;;10.72;94.82
23473;BME280;11909;52.516;13.564;2023-03-14T02:36:19;98526.34;;;10.72;95.09
23473;BME280;11909;52.516;13.564;2023-03-14T02:38:53;98540.34;;;10.79;94.52
23473;BME280;11909;52.516;13.564;2023-03-14T02:41:23;98535.88;;;10.74;94.34
23473;BME280;11909;52.516;13.564;2023-03-14T02:43:52;98525.34;;;10.76;94.21
23473;BME280;11909;52.516;13.564;2023-03-14T02:46:21;98518.88;;;10.81;94.09
23473;BME280;11909;52.516;13.564;2023-03-14T02:48:51;98526.03;;;10.73;94.11
23473;BME280;11909;52.516;13.564;2023-03-14T02:51:21;98517.00;;;10.73;94.53
23473;BME280;11909;52.516;13.564;2023-03-14T02:53:50;98514.28;;;10.73;94.49
23473;BME280;11909;52.516;13.564;2023-03-14T02:56:18;98515.53;;;10.75;94.01
23473;BME280;11909;52.516;13.564;2023-03-14T02:58:46;98508.22;;;10.80;93.85
23473;BME280;11909;52.516;13.564;2023-03-14T03:01:15;98501.13;;;10.79;93.89
23473;BME280;11909;52.516;13.564;2023-03-14T03:03:43;98488.91;;;10.76;93.78
23473;BME280;11909;52.516;13.564;2023-03-14T03:06:11;98479.59;;;10.68;94.10
23473;BME280;11909;52.516;13.564;2023-03-14T03:08:38;98478.31;;;10.66;94.41
23473;BME280;11909;52.516;13.564;2023-03-14T03:11:06;98476.31;;;10.75;93.90
23473;BME280;11909;52.516;13.564;2023-03-14T03:13:34;98465.06;;;10.68;94.16
23473;BME280;11909;52.516;13.564;2023-03-14T03:16:03;98446.31;;;10.57;94.41
23473;BME280;11909;52.516;13.564;2023-03-14T03:18:32;98444.50;;;10.61;94.68
23473;BME280;11909;52.516;13.564;2023-03-14T03:21:00;98441.88;;;10.65;94.12
23473;BME280;11909;52.516;13.564;2023-03-14T03:23:28;98428.63;;;10.67;94.06
23473;BME280;11909;52.516;13.564;2023-03-14T03:25:56;98435.78;;;10.59;94.35
23473;BME280;11909;52.516;13.564;2023-03-14T03:28:23;98422.88;;;10.60;94.18
23473;BME280;11909;52.516;13.564;2023-03-14T03:30:51;98428.94;;;10.53;94.57
23473;BME280;11909;52.516;13.564;2023-03-14T03:33:19;98451.25;;;10.64;93.87
23473;BME280;11909;52.516;13.564;2023-03-14T03:35:50;98461.75;;;10.62;93.70
23473;BME280;11909;52.516;13.564;2023-03-14T03:38:18;98453.47;;;10.50;94.49
23473;BME280;11909;52.516;13.564;2023-03-14T03:40:47;98457.03;;;10.50;94.35
23473;BME280;11909;52.516;13.564;2023-03-14T03:43:14;98450.50;;;10.55;94.39
23473;BME280;11909;52.516;13.564;2023-03-14T03:45:42;98461.22;;;10.47;94.52
23473;BME280;11909;52.516;13.564;2023-03-14T03:48:10;98455.75;;;10.47;94.53
23473;BME280;11909;52.516;13.564;2023-03-14T03:50:44;98463.16;;;10.47;94.89
23473;BME280;11909;52.516;13.564;2023-03-14T03:53:13;98460.09;;;10.49;94.25
23473;BME280;11909;52.516;13.564;2023-03-14T03:55:52;98443.56;;;10.57;93.92
23473;BME280;11909;52.516;13.564;2023-03-14T03:58:20;98453.16;;;10.51;94.01
23473;BME280;11909;52.516;13.564;2023-03-14T04:00:48;98457.69;;;10.47;94.31
23473;BME280;11909;52.516;13.564;2023-03-14T04:03:15;98446.06;;;10.50;93.90
23473;BME280;11909;52.516;13.564;2023-03-14T04:05:43;98455.41;;;10.49;93.92
23473;BME280;11909;52.516;13.564;2023-03-14T04:08:12;98456.06;;;10.46;93.46
23473;BME280;11909;52.516;13.564;2023-03-14T04:10:40;98470.06;;;10.53;93.74
23473;BME280;11909;52.516;13.564;2023-03-14T04:13:08;98466.84;;;10.51;93.53
23473;BME280;11909;52.516;13.564;2023-03-14T04:15:36;98439.63;;;10.46;93.55
23473;BME280;11909;52.516;13.564;2023-03-14T04:18:03;98457.34;;;10.49;92.97
23473;BME280;11909;52.516;13.564;2023-03-14T04:20:34;98462.00;;;10.48;93.27
23473;BME280;11909;52.516;13.564;2023-03-14T04:23:01;98460.88;;;10.49;93.16
23473;BME280;11909;52.516;13.564;2023-03-14T04:25:31;98444.69;;;10.35;93.64
23473;BME280;11909;52.516;13.564;2023-03-14T04:27:58;98448.88;;;10.41;93.40
23473;BME280;11909;52.516;13.564;2023-03-14T04:30:26;98440.75;;;10.45;92.73
23473;BME280;11909;52.516;13.564;2023-03-14T04:32:54;98455.19;;;10.33;93.41
23473;BME280;11909;52.516;13.564;2023-03-14T04:35:22;98432.41;;;10.41;92.84
23473;BME280;11909;52.516;13.564;2023-03-14T04:37:50;98441.94;;;10.35;93.18
23473;BME280;11909;52.516;13.564;2023-03-14T04:40:18;98436.41;;;10.44;92.35
23473;BME280;11909;52.516;13.564;2023-03-14T04:42:47;98429.19;;;10.39;92.50
23473;BME280;11909;52.516;13.564;2023-03-14T04:45:15;98415.97;;;10.41;92.37
23473;BME280;11909;52.516;13.564;2023-03-14T04:47:43;98416.69;;;10.29;93.29
23473;BME280;11909;52.516;13.564;2023-03-14T04:50:11;98416.88;;;10.24;93.44
23473;BME280;11909;52.516;13.564;2023-03-14T04:52:38;98410.13;;;10.22;93.39
23473;BME280;11909;52.516;13.564;2023-03-14T04:55:07;98409.69;;;10.19;93.44
23473;BME280;11909;52.516;13.564;2023-03-14T04:57:34;98396.91;;;10.24;93.14
23473;BME280;11909;52.516;13.564;2023-03-14T05:00:04;98394.22;;;10.15;93.33
23473;BME280;11909;52.516;13.564;2023-03-14T05:02:34;98388.59;;;10.32;92.13
23473;BME280;11909;52.516;13.564;2023-03-14T05:05:02;98391.47;;;10.15;93.10
23473;BME280;11909;52.516;13.564;2023-03-14T05:07:30;98398.97;;;10.27;92.36
23473;BME280;11909;52.516;13.564;2023-03-14T05:09:57;98394.94;;;10.24;92.19
23473;BME280;11909;52.516;13.564;2023-03-14T05:12:25;98401.69;;;10.27;92.00
23473;BME280;11909;52.516;13.564;2023-03-14T05:14:53;98408.47;;;10.29;91.18
23473;BME280;11909;52.516;13.564;2023-03-14T05:17:22;98401.56;;;10.23;91.70
23473;BME280;11909;52.516;13.564;2023-03-14T05:19:49;98398.72;;;10.19;91.40
23473;BME280;11909;52.516;13.564;2023-03-14T05:22:17;98396.50;;;10.13;91.70
23473;BME280;11909;52.516;13.564;2023-03-14T05:24:45;98388.41;;;10.16;91.83
23473;BME280;11909;52.516;13.564;2023-03-14T05:27:13;98381.06;;;10.29;90.75
23473;BME280;11909;52.516;13.564;2023-03-14T05:29:41;98380.78;;;10.22;90.78
23473;BME280;11909;52.516;13.564;2023-03-14T05:32:08;98383.19;;;10.24;90.31
23473;BME280;11909;52.516;13.564;2023-03-14T05:34:37;98379.97;;;10.22;90.28
23473;BME280;11909;52.516;13.564;2023-03-14T05:37:05;98383.66;;;10.26;89.85
23473;BME280;11909;52.516;13.564;2023-03-14T05:39:33;98376.66;;;10.16;90.05
23473;BME280;11909;52.516;13.564;2023-03-14T05:42:01;98383.88;;;10.21;89.60
23473;BME280;11909;52.516;13.564;2023-03-14T05:44:28;98384.72;;;10.12;90.02
23473;BME280;11909;52.516;13.564;2023-03-14T05:46:56;98384.16;;;10.07;90.05
23473;BME280;11909;52.516;13.564;2023-03-14T05:49:24;98392.47;;;10.10;89.66
23473;BME280;11909;52.516;13.564;2023-03-14T05:51:53;98384.88;;;10.16;89.15
23473;BME280;11909;52.516;13.564;2023-03-14T05:54:21;98382.44;;;10.14;88.93
23473;BME280;11909;52.516;13.564;2023-03-14T05:56:49;98390.09;;;10.09;89.61
23473;BME280;11909;52.516;13.564;2023-03-14T05:59:16;98400.78;;;10.23;87.75
23473;BME280;11909;52.516;13.564;2023-03-14T06:01:44;98389.91;;;10.26;87.53
23473;BME280;11909;52.516;13.564;2023-03-14T06:04:12;98391.41;;;10.24;87.10
23473;BME280;11909;52.516;13.564;2023-03-14T06:06:40;98388.22;;;10.22;87.08
23473;BME280;11909;52.516;13.564;2023-03-14T06:09:09;98392.34;;;10.28;86.30
23473;BME280;11909;52.516;13.564;2023-03-14T06:11:37;98382.72;;;10.22;86.17
23473;BME280;11909;52.516;13.564;2023-03-14T06:14:05;98393.56;;;10.18;86.73
23473;BME280;11909;52.516;13.564;2023-03-14T06:16:33;98404.78;;;10.25;85.75
23473;BME280;11909;52.516;13.564;2023-03-14T06:19:00;98391.88;;;10.26;85.84
23473;BME280;11909;52.516;13.564;2023-03-14T06:21:28;98396.00;;;10.32;85.20
23473;BME280;11909;52.516;13.564;2023-03-14T06:23:56;98399.34;;;10.38;84.47
23473;BME280;11909;52.516;13.564;2023-03-14T06:26:25;98393.16;;;10.28;84.54
23473;BME280;11909;52.516;13.564;2023-03-14T06:28:53;98401.25;;;10.25;85.03
23473;BME280;11909;52.516;13.564;2023-03-14T06:31:21;98420.97;;;10.39;83.91
23473;BME280;11909;52.516;13.564;2023-03-14T06:33:48;98399.97;;;10.43;83.16
23473;BME280;11909;52.516;13.564;2023-03-14T06:36:16;98400.88;;;10.26;84.21
23473;BME280;11909;52.516;13.564;2023-03-14T06:38:44;98416.53;;;10.47;82.90
23473;BME280;11909;52.516;13.564;2023-03-14T06:41:11;98414.38;;;10.40;82.91
23473;BME280;11909;52.516;13.564;2023-03-14T06:43:41;98414.00;;;10.42;82.93
23473;BME280;11909;52.516;13.564;2023-03-14T06:46:08;98414.00;;;10.42;82.35
23473;BME280;11909;52.516;13.564;2023-03-14T06:48:36;98430.59;;;10.45;82.47
23473;BME280;11909;52.516;13.564;2023-03-14T06:51:04;98425.22;;;10.49;81.94
23473;BME280;11909;52.516;13.564;2023-03-14T06:53:33;98437.41;;;10.60;81.06
23473;BME280;11909;52.516;13.564;2023-03-14T06:56:00;98436.72;;;10.64;80.85
23473;BME280;11909;52.516;13.564;2023-03-14T06:58:28;98437.19;;;10.66;80.46
23473;BME280;11909;52.516;13.564;2023-03-14T07:00:57;98445.41;;;10.66;80.42
23473;BME280;11909;52.516;13.564;2023-03-14T07:03:25;98458.13;;;10.70;80.56
23473;BME280;11909;52.516;13.564;2023-03-14T07:05:53;98454.03;;;10.76;79.81
23473;BME280;11909;52.516;13.564;2023-03-14T07:08:21;98452.41;;;10.75;79.86
23473;BME280;11909;52.516;13.564;2023-03-14T07:10:49;98463.38;;;10.75;79.94
23473;BME280;11909;52.516;13.564;2023-03-14T07:13:16;98469.72;;;10.88;79.09
23473;BME280;11909;52.516;13.564;2023-03-14T07:15:45;98472.47;;;10.88;78.96
23473;BME280;11909;52.516;13.564;2023-03-14T07:18:14;98478.41;;;10.90;79.04
23473;BME280;11909;52.516;13.564;2023-03-14T07:20:41;98472.47;;;10.88;78.86
23473;BME280;11909;52.516;13.564;2023-03-14T07:23:09;98481.06;;;10.87;79.33
23473;BME280;11909;52.516;13.564;2023-03-14T07:25:37;98481.97;;;10.91;78.34
23473;BME280;11909;52.516;13.564;2023-03-14T07:28:05;98475.81;;;10.94;78.60
23473;BME280;11909;52.516;13.564;2023-03-14T07:30:32;98484.97;;;10.98;78.13
23473;BME280;11909;52.516;13.564;2023-03-14T07:33:00;98479.09;;;10.87;78.63
23473;BME280;11909;52.516;13.564;2023-03-14T07:35:29;98475.13;;;10.97;78.91
23473;BME280;11909;52.516;13.564;2023-03-14T07:37:57;98477.88;;;10.97;78.81
23473;BME280;11909;52.516;13.564;2023-03-14T07:40:25;98483.34;;;10.97;78.93
23473;BME280;11909;52.516;13.564;2023-03-14T07:42:53;98484.72;;;10.91;78.98
23473;BME280;11909;52.516;13.564;2023-03-14T07:45:21;98476.91;;;10.81;79.30
23473;BME280;11909;52.516;13.564;2023-03-14T07:47:50;98470.88;;;10.87;79.12
23473;BME280;11909;52.516;13.564;2023-03-14T07:50:18;98465.50;;;10.91;79.50
23473;BME280;11909;52.516;13.564;2023-03-14T07:52:47;98479.69;;;10.93;78.86
23473;BME280;11909;52.516;13.564;2023-03-14T07:55:16;98480.00;;;10.92;79.39
23473;BME280;11909;52.516;13.564;2023-03-14T07:57:44;98471.69;;;10.88;79.33
23473;BME280;11909;52.516;13.564;2023-03-14T08:00:13;98474.88;;;10.90;79.60
23473;BME280;11909;52.516;13.564;2023-03-14T08:02:41;98479.94;;;11.00;78.99
23473;BME280;11909;52.516;13.564;2023-03-14T08:05:09;98468.25;;;10.91;79.33
23473;BME280;11909;52.516;13.564;2023-03-14T08:07:37;98485.19;;;10.93;79.30
23473;BME280;11909;52.516;13.564;2023-03-14T08:10:08;98473.19;;;10.98;78.93
23473;BME280;11909;52.516;13.564;2023-03-14T08:12:36;98469.78;;;11.01;78.92
23473;BME280;11909;52.516;13.564;2023-03-14T08:15:05;98469.22;;;11.08;78.23
23473;BME280;11909;52.516;13.564;2023-03-14T08:17:32;98456.16;;;11.04;78.41
23473;BME280;11909;52.516;13.564;2023-03-14T08:20:00;98460.75;;;11.13;78.36
23473;BME280;11909;52.516;13.564;2023-03-14T08:22:33;98472.44;;;11.22;77.65
23473;BME280;11909;52.516;13.564;2023-03-14T08:25:01;98469.44;;;11.15;77.89
23473;BME280;11909;52.516;13.564;2023-03-14T08:27:30;98457.31;;;11.16;78.27
23473;BME280;11909;52.516;13.564;2023-03-14T08:29:57;98460.31;;;11.23;77.61
23473;BME280;11909;52.516;13.564;2023-03-14T08:32:25;98453.69;;;11.37;77.26
23473;BME280;11909;52.516;13.564;2023-03-14T08:34:53;98457.81;;;11.30;77.49
23473;BME280;11909;52.516;13.564;2023-03-14T08:37:21;98485.59;;;11.29;76.67
23473;BME280;11909;52.516;13.564;2023-03-14T08:39:52;98467.16;;;11.29;77.14
23473;BME280;11909;52.516;13.564;2023-03-14T08:42:20;98469.13;;;11.29;77.41
23473;BME280;11909;52.516;13.564;2023-03-14T08:44:50;98489.03;;;11.38;76.79
23473;BME280;11909;52.516;13.564;2023-03-14T08:47:18;98479.56;;;11.36;76.86
23473;BME280;11909;52.516;13.564;2023-03-14T08:49:46;98480.47;;;11.40;76.74
23473;BME280;11909;52.516;13.564;2023-03-14T08:52:14;98468.91;;;11.34;77.24
23473;BME280;11909;52.516;13.564;2023-03-14T08:54:43;98479.66;;;11.39;76.90
23473;BME280;11909;52.516;13.564;2023-03-14T08:57:11;98473.38;;;11.39;76.23
23473;BME280;11909;52.516;13.564;2023-03-14T08:59:38;98486.56;;;11.45;76.09
23473;BME280;11909;52.516;13.564;2023-03-14T09:02:09;98493.19;;;11.44;76.13
23473;BME280;11909;52.516;13.564;2023-03-14T09:04:39;98479.31;;;11.53;75.74
23473;BME280;11909;52.516;13.564;2023-03-14T09:07:07;98499.13;;;11.46;75.92
23473;BME280;11909;52.516;13.564;2023-03-14T09:09:34;98481.84;;;11.46;75.93
23473;BME280;11909;52.516;13.564;2023-03-14T09:12:03;98486.56;;;11.45;76.33
23473;BME280;11909;52.516;13.564;2023-03-14T09:14:31;98480.81;;;11.51;76.25
23473;BME280;11909;52.516;13.564;2023-03-14T09:16:59;98482.06;;;11.53;76.16
23473;BME280;11909;52.516;13.564;2023-03-14T09:19:28;98470.28;;;11.53;76.55
23473;BME280;11909;52.516;13.564;2023-03-14T09:21:56;98466.16;;;11.59;75.38
23473;BME280;11909;52.516;13.564;2023-03-14T09:24:24;98471.22;;;11.69;75.41
23473;BME280;11909;52.516;13.564;2023-03-14T09:26:51;98462.41;;;12.01;73.94
23473;BME280;11909;52.516;13.564;2023-03-14T09:29:19;98470.63;;;12.13;73.39
23473;BME280;11909;52.516;13.564;2023-03-14T09:31:47;98451.31;;;12.38;72.43
23473;BME280;11909;52.516;13.564;2023-03-14T09:34:14;98461.88;;;12.65;71.64
23473;BME280;11909;52.516;13.564;2023-03-14T09:36:44;98480.03;;;12.82;69.81
23473;BME280;11909;52.516;13.564;2023-03-14T09:39:12;98463.47;;;12.94;69.76
23473;BME280;11909;52.516;13.564;2023-03-14T09:41:41;98469.59;;;13.19;67.42
23473;BME280;11909;52.516;13.564;2023-03-14T09:44:13;98484.03;;;13.29;66.91
23473;BME280;11909;52.516;13.564;2023-03-14T09:46:44;98476.13;;;13.43;66.62
23473;BME280;11909;52.516;13.564;2023-03-14T09:49:21;98494.78;;;13.34;65.52
23473;BME280;11909;52.516;13.564;2023-03-14T09:51:53;98476.66;;;13.33;65.72
23473;BME280;11909;52.516;13.564;2023-03-14T09:54:30;98490.72;;;13.44;65.43
23473;BME280;11909;52.516;13.564;2023-03-14T09:56:58;98486.84;;;13.32;64.35
23473;BME280;11909;52.516;13.564;2023-03-14T09:59:27;98481.06;;;13.22;65.11
23473;BME280;11909;52.516;13.564;2023-03-14T10:01:58;98477.25;;;13.10;65.56
23473;BME280;11909;52.516;13.564;2023-03-14T10:04:28;98479.13;;;13.06;66.23
23473;BME280;11909;52.516;13.564;2023-03-14T10:06:57;98477.22;;;12.94;65.07
23473;BME280;11909;52.516;13.564;2023-03-14T10:09:25;98492.94;;;12.94;65.49
23473;BME280;11909;52.516;13.564;2023-03-14T10:11:54;98485.91;;;12.80;64.48
23473;BME280;11909;52.516;13.564;2023-03-14T10:14:31;98489.00;;;12.79;64.67
23473;BME280;11909;52.516;13.564;2023-03-14T10:17:07;98483.75;;;12.73;65.37
23473;BME280;11909;52.516;13.564;2023-03-14T10:19:37;98514.59;;;12.67;64.54
23473;BME280;11909;52.516;13.564;2023-03-14T10:22:13;98492.47;;;12.63;64.82
23473;BME280;11909;52.516;13.564;2023-03-14T10:24:45;98489.03;;;12.66;65.10
23473;BME280;11909;52.516;13.564;2023-03-14T10:27:19;98494.09;;;12.64;65.09
23473;BME280;11909;52.516;13.564;2023-03-14T10:29:53;98492.16;;;12.65;65.01
23473;BME280;11909;52.516;13.564;2023-03-14T10:32:32;98495.22;;;12.63;64.75
23473;BME280;11909;52.516;13.564;2023-03-14T10:35:17;98499.09;;;12.74;64.55
23473;BME280;11909;52.516;13.564;2023-03-14T10:37:56;98501.28;;;12.69;64.13
23473;BME280;11909;52.516;13.564;2023-03-14T10:40:27;98491.00;;;12.66;64.47
23473;BME280;11909;52.516;13.564;2023-03-14T10:42:57;98502.78;;;12.66;63.66
23473;BME280;11909;52.516;13.564;2023-03-14T10:45:34;98499.94;;;12.62;63.44
23473;BME280;11909;52.516;13.564;2023-03-14T10:48:18;98494.34;;;12.59;64.00
23473;BME280;11909;52.516;13.564;2023-03-14T10:50:53;98489.53;;;12.56;64.63
23473;BME280;11909;52.516;13.564;2023-03-14T10:53:24;98492.84;;;12.61;64.63
23473;BME280;11909;52.516;13.564;2023-03-14T10:55:55;98494.13;;;12.52;65.18
23473;BME280;11909;52.516;13.564;2023-03-14T10:58:25;98500.09;;;12.54;64.64
23473;BME280;11909;52.516;13.564;2023-03-14T11:01:02;98494.59;;;12.54;64.65
23473;BME280;11909;52.516;13.564;2023-03-14T11:03:34;98503.44;;;12.47;64.20
23473;BME280;11909;52.516;13.564;2023-03-14T11:06:07;98512.84;;;12.46;64.50
23473;BME280;11909;52.516;13.564;2023-03-14T11:08:43;98500.44;;;12.52;64.10
23473;BME280;11909;52.516;13.564;2023-03-14T11:11:16;98499.19;;;12.50;64.32
23473;BME280;11909;52.516;13.564;2023-03-14T11:13:54;98499.72;;;12.55;64.46
23473;BME280;11909;52.516;13.564;2023-03-14T11:16:28;98502.28;;;12.48;64.61
23473;BME280;11909;52.516;13.564;2023-03-14T11:19:15;98494.91;;;12.52;64.53
23473;BME280;11909;52.516;13.564;2023-03-14T11:21:53;98496.88;;;12.52;65.23
23473;BME280;11909;52.516;13.564;2023-03-14T11:24:36;98484.94;;;12.60;65.33
23473;BME280;11909;52.516;13.564;2023-03-14T11:27:16;98491.94;;;12.57;65.76
23473;BME280;11909;52.516;13.564;2023-03-14T11:29:52;98495.16;;;12.59;65.54
23473;BME280;11909;52.516;13.564;2023-03-14T11:32:35;98495.38;;;12.54;65.61
23473;BME280;11909;52.516;13.564;2023-03-14T11:35:13;98486.44;;;12.57;65.69
23473;BME280;11909;52.516;13.564;2023-03-14T11:37:46;98479.69;;;12.55;65.40
23473;BME280;11909;52.516;13.564;2023-03-14T11:40:18;98479.94;;;12.50;65.94
23473;BME280;11909;52.516;13.564;2023-03-14T11:42:52;98482.13;;;12.44;66.66
23473;BME280;11909;52.516;13.564;2023-03-14T11:45:25;98484.81;;;12.56;66.65
23473;BME280;11909;52.516;13.564;2023-03-14T11:48:04;98483.69;;;12.57;66.87
23473;BME280;11909;52.516;13.564;2023-03-14T11:50:33;98477.53;;;12.48;68.10
23473;BME280;11909;52.516;13.564;2023-03-14T11:53:08;98488.06;;;12.46;68.15
23473;BME280;11909;52.516;13.564;2023-03-14T11:55:40;98484.16;;;12.47;68.47
23473;BME280;11909;52.516;13.564;2023-03-14T11:58:12;98470.75;;;12.45;69.18
23473;BME280;11909;52.516;13.564;2023-03-14T12:00:42;98464.00;;;12.43;70.98
23473;BME280;11909;52.516;13.564;2023-03-14T12:03:16;98471.72;;;12.37;71.92
23473;BME280;11909;52.516;13.564;2023-03-14T12:05:53;98471.50;;;12.30;70.96
23473;BME280;11909;52.516;13.564;2023-03-14T12:08:44;98490.19;;;12.24;72.10
23473;BME280;11909;52.516;13.564;2023-03-14T12:11:30;98465.69;;;12.19;72.37
23473;BME280;11909;52.516;13.564;2023-03-14T12:14:00;98471.88;;;12.16;73.50
23473;BME280;11909;52.516;13.564;2023-03-14T12:16:38;98464.66;;;12.11;74.82
23473;BME280;11909;52.516;13.564;2023-03-14T12:19:14;98452.41;;;12.09;75.40
23473;BME280;11909;52.516;13.564;2023-03-14T12:21:47;98449.44;;;12.14;75.35
23473;BME280;11909;52.516;13.564;2023-03-14T12:24:18;98448.50;;;12.10;75.93
23473;BME280;11909;52.516;13.564;2023-03-14T12:26:53;98442.09;;;12.05;76.24
23473;BME280;11909;52.516;13.564;2023-03-14T12:29:22;98442.56;;;12.08;76.59
23473;BME280;11909;52.516;13.564;2023-03-14T12:32:07;98433.16;;;12.09;75.81
23473;BME280;11909;52.516;13.564;2023-03-14T12:34:39;98434.75;;;12.10;76.05
23473;BME280;11909;52.516;13.564;2023-03-14T12:37:25;98435.00;;;12.17;75.43
23473;BME280;11909;52.516;13.564;2023-03-14T12:40:01;98426.81;;;12.21;75.71
23473;BME280;11909;52.516;13.564;2023-03-14T12:42:41;98427.31;;;12.23;75.76
23473;BME280;11909;52.516;13.564;2023-03-14T12:45:22;98430.59;;;12.28;75.02
23473;BME280;11909;52.516;13.564;2023-03-14T12:47:53;98434.50;;;12.27;75.02
23473;BME280;11909;52.516;13.564;2023-03-14T12:50:35;98422.31;;;12.41;75.96
23473;BME280;11909;52.516;13.564;2023-03-14T12:56:18;98411.25;;;12.25;79.45
23473;BME280;11909;52.516;13.564;2023-03-14T12:58:59;98423.41;;;12.24;78.16
23473;BME280;11909;52.516;13.564;2023-03-14T13:01:28;98411.13;;;12.21;78.90
23473;BME280;11909;52.516;13.564;2023-03-14T13:03:57;98420.09;;;12.18;80.05
23473;BME280;11909;52.516;13.564;2023-03-14T13:06:46;98409.53;;;12.20;77.85
23473;BME280;11909;52.516;13.564;2023-03-14T13:09:49;98401.59;;;12.31;76.88
23473;BME280;11909;52.516;13.564;2023-03-14T13:12:23;98399.00;;;12.22;77.94